createdAt,value
2023-03-01T00:03:09.079Z,17.93
2023-03-01T00:08:05.840Z,18.25
2023-03-01T00:13:00.806Z,19.10
2023-03-01T00:17:56.059Z,20.10
2023-03-01T00:22:51.570Z,19.27
2023-03-01T00:27:46.673Z,20.43
2023-03-01T00:32:39.892Z,20.48
2023-03-01T00:37:33.083Z,20.07
2023-03-01T00:42:23.765Z,21.00
2023-03-01T00:47:15.233Z,20.98
2023-03-01T00:52:11.995Z,20.98
2023-03-01T00:57:11.346Z,18.95
2023-03-01T01:02:04.813Z,19.80
2023-03-01T01:06:55.980Z,19.50
2023-03-01T01:11:47.418Z,20.98
2023-03-01T01:16:41.080Z,20.37
2023-03-01T01:21:39.513Z,20.20
2023-03-01T01:26:34.447Z,19.98
2023-03-01T01:31:25.908Z,21.53
2023-03-01T01:36:29.482Z,21.50
2023-03-01T01:41:28.861Z,23.93
2023-03-01T01:46:34.657Z,21.48
2023-03-01T01:51:39.899Z,22.20
2023-03-01T01:56:33.083Z,21.30
2023-03-01T02:01:34.100Z,20.75
2023-03-01T02:06:52.498Z,20.27
2023-03-01T02:11:53.698Z,21.75
2023-03-01T02:16:44.462Z,24.35
2023-03-01T02:21:42.583Z,27.58
2023-03-01T02:26:54.497Z,26.23
2023-03-01T02:31:55.589Z,26.05
2023-03-01T02:36:55.326Z,27.25
2023-03-01T02:41:57.268Z,26.95
2023-03-01T02:46:56.110Z,27.88
2023-03-01T02:52:12.952Z,27.50
2023-03-01T02:57:14.416Z,28.48
2023-03-01T03:02:07.946Z,26.48
2023-03-01T03:06:58.310Z,27.48
2023-03-01T03:11:54.175Z,24.08
2023-03-01T03:17:00.934Z,25.83
2023-03-01T03:21:58.740Z,27.40
2023-03-01T03:26:49.990Z,24.83
2023-03-01T03:31:42.712Z,25.90
2023-03-01T03:36:39.571Z,25.65
2023-03-01T03:41:32.429Z,23.80
2023-03-01T03:46:22.470Z,24.05
2023-03-01T03:51:22.936Z,25.27
2023-03-01T03:56:19.228Z,23.90
2023-03-01T04:01:18.212Z,25.00
2023-03-01T04:06:16.226Z,24.33
2023-03-01T04:11:25.126Z,24.33
2023-03-01T04:16:20.661Z,22.88
2023-03-01T04:21:13.310Z,21.45
2023-03-01T04:26:13.543Z,22.73
2023-03-01T04:31:23.119Z,22.30
2023-03-01T04:36:24.505Z,20.30
2023-03-01T04:41:16.270Z,23.07
2023-03-01T04:46:07.470Z,24.43
2023-03-01T04:50:57.568Z,22.23
2023-03-01T04:55:58.130Z,23.80
2023-03-01T05:00:56.247Z,22.55
2023-03-01T05:05:49.045Z,24.00
2023-03-01T05:10:48.755Z,22.38
2023-03-01T05:15:48.949Z,21.93
2023-03-01T05:20:43.524Z,21.08
2023-03-01T05:25:35.235Z,21.80
2023-03-01T05:30:25.705Z,21.88
2023-03-01T05:35:26.682Z,21.83
2023-03-01T05:40:26.476Z,21.85
2023-03-01T05:45:30.776Z,21.58
2023-03-01T05:50:26.513Z,22.77
2023-03-01T05:55:24.540Z,20.77
2023-03-01T06:00:16.852Z,18.75
2023-03-01T06:05:12.401Z,18.20
2023-03-01T06:10:08.859Z,20.90
2023-03-01T06:15:07.525Z,18.75
2023-03-01T06:20:11.508Z,18.67
2023-03-01T06:25:13.518Z,18.58
2023-03-01T06:30:13.956Z,19.45
2023-03-01T06:35:05.846Z,18.02
2023-03-01T06:39:57.701Z,15.33
2023-03-01T06:44:52.853Z,17.02
2023-03-01T06:49:43.386Z,17.50
2023-03-01T06:54:36.954Z,19.95
2023-03-01T06:59:32.851Z,17.25
2023-03-01T07:04:27.143Z,20.20
2023-03-01T07:09:25.840Z,19.83
2023-03-01T07:14:16.349Z,18.08
2023-03-01T07:19:14.105Z,17.10
2023-03-01T07:24:10.702Z,18.77
2023-03-01T07:29:05.542Z,15.52
2023-03-01T07:34:01.524Z,15.30
2023-03-01T07:38:55.570Z,18.15
2023-03-01T07:43:49.505Z,17.63
2023-03-01T07:48:42.491Z,15.38
2023-03-01T07:53:35.351Z,14.45
2023-03-01T07:58:29.926Z,15.20
2023-03-01T08:03:23.058Z,12.35
2023-03-01T08:08:19.845Z,12.80
2023-03-01T08:13:14.789Z,15.77
2023-03-01T08:18:08.035Z,11.55
2023-03-01T08:23:05.159Z,11.80
2023-03-01T08:28:01.599Z,13.63
2023-03-01T08:32:57.543Z,9.70
2023-03-01T08:37:50.732Z,10.77
2023-03-01T08:42:45.355Z,11.32
2023-03-01T08:47:40.684Z,8.45
2023-03-01T08:52:35.591Z,8.23
2023-03-01T08:57:26.687Z,9.15
2023-03-01T09:02:24.000Z,8.60
2023-03-01T09:07:36.011Z,8.75
2023-03-01T09:12:31.737Z,12.57
2023-03-01T09:17:24.408Z,8.32
2023-03-01T09:22:18.756Z,8.03
2023-03-01T09:27:15.271Z,6.22
2023-03-01T09:32:09.347Z,6.53
2023-03-01T09:37:09.659Z,6.75
2023-03-01T09:42:09.212Z,4.35
2023-03-01T09:47:10.523Z,6.00
2023-03-01T09:52:17.746Z,4.13
2023-03-01T09:57:25.570Z,4.82
2023-03-01T10:02:30.538Z,3.87
2023-03-01T10:07:38.174Z,3.60
2023-03-01T10:12:37.308Z,3.40
2023-03-01T10:17:50.900Z,4.18
2023-03-01T10:22:48.742Z,2.43
2023-03-01T10:27:47.918Z,3.50
2023-03-01T10:32:39.058Z,3.65
2023-03-01T10:37:29.445Z,3.47
2023-03-01T10:42:33.501Z,3.13
2023-03-01T10:47:32.657Z,4.70
2023-03-01T10:52:25.844Z,3.55
2023-03-01T10:57:44.250Z,3.13
2023-03-01T11:02:39.775Z,3.35
2023-03-01T11:07:31.762Z,2.97
2023-03-01T11:12:25.866Z,2.58
2023-03-01T11:17:22.424Z,1.80
2023-03-01T11:22:23.765Z,2.67
2023-03-01T11:27:30.517Z,2.90
2023-03-01T11:32:28.831Z,2.88
2023-03-01T11:37:46.684Z,3.42
2023-03-01T11:43:13.463Z,3.28
2023-03-01T11:49:00.030Z,2.42
2023-03-01T11:54:01.727Z,2.53
2023-03-01T11:59:19.045Z,2.60
2023-03-01T12:04:59.122Z,3.10
2023-03-01T12:10:24.266Z,2.50
2023-03-01T12:15:47.795Z,2.10
2023-03-01T12:21:02.782Z,2.85
2023-03-01T12:26:08.545Z,3.42
2023-03-01T12:31:30.122Z,2.72
2023-03-01T12:36:47.866Z,2.63
2023-03-01T12:41:56.337Z,3.53
2023-03-01T12:47:05.677Z,3.90
2023-03-01T12:52:05.798Z,3.30
2023-03-01T12:57:04.267Z,3.90
2023-03-01T13:02:09.357Z,3.67
2023-03-01T13:07:31.509Z,4.45
2023-03-01T13:12:52.803Z,4.30
2023-03-01T13:17:55.752Z,2.90
2023-03-01T13:22:54.943Z,4.32
2023-03-01T13:27:49.325Z,2.27
2023-03-01T13:32:59.582Z,3.58
2023-03-01T13:37:56.845Z,2.70
2023-03-01T13:43:04.263Z,2.07
2023-03-01T13:48:06.876Z,1.92
2023-03-01T13:53:26.741Z,2.03
2023-03-01T13:58:36.559Z,3.53
2023-03-01T14:03:34.718Z,2.08
2023-03-01T14:08:38.811Z,2.65
2023-03-01T14:13:43.561Z,3.00
2023-03-01T14:18:43.255Z,2.35
2023-03-01T14:23:40.715Z,3.80
2023-03-01T14:28:34.896Z,3.03
2023-03-01T14:33:43.113Z,3.10
2023-03-01T14:38:42.525Z,2.63
2023-03-01T14:43:36.003Z,3.13
2023-03-01T14:48:26.991Z,3.60
2023-03-01T14:53:37.633Z,3.38
2023-03-01T14:58:41.300Z,2.85
2023-03-01T15:03:40.744Z,3.88
2023-03-01T15:08:37.003Z,3.35
2023-03-01T15:13:35.807Z,2.93
2023-03-01T15:18:32.984Z,2.50
2023-03-01T15:23:28.733Z,3.20
2023-03-01T15:28:28.540Z,3.15
2023-03-01T15:33:33.199Z,2.43
2023-03-01T15:38:58.511Z,3.13
2023-03-01T15:43:59.089Z,2.72
2023-03-01T15:48:55.923Z,2.78
2023-03-01T15:54:03.172Z,3.50
2023-03-01T15:58:53.497Z,2.22
2023-03-01T16:03:43.591Z,2.63
2023-03-01T16:08:33.590Z,2.60
2023-03-01T16:13:30.110Z,2.60
2023-03-01T16:18:20.831Z,2.63
2023-03-01T16:23:17.149Z,2.85
2023-03-01T16:28:16.262Z,3.08
2023-03-01T16:33:26.390Z,2.88
2023-03-01T16:38:26.375Z,2.60
2023-03-01T16:43:16.637Z,3.67
2023-03-01T16:48:13.165Z,2.63
2023-03-01T16:53:08.655Z,4.25
2023-03-01T16:58:03.593Z,3.60
2023-03-01T17:03:05.856Z,2.80
2023-03-01T17:08:09.701Z,3.83
2023-03-01T17:13:03.366Z,3.97
2023-03-01T17:17:53.630Z,3.65
2023-03-01T17:22:43.707Z,3.30
2023-03-01T17:27:50.477Z,3.85
2023-03-01T17:32:42.883Z,4.13
2023-03-01T17:37:40.287Z,2.53
2023-03-01T17:42:35.411Z,2.90
2023-03-01T17:47:33.157Z,3.70
2023-03-01T17:52:25.074Z,3.33
2023-03-01T17:57:20.446Z,4.85
2023-03-01T18:02:17.350Z,4.35
2023-03-01T18:07:15.606Z,4.68
2023-03-01T18:12:12.756Z,4.40
2023-03-01T18:17:12.369Z,4.35
2023-03-01T18:22:04.046Z,4.03
2023-03-01T18:27:00.281Z,3.67
2023-03-01T18:31:53.089Z,4.73
2023-03-01T18:37:00.567Z,5.63
2023-03-01T18:42:06.648Z,6.15
2023-03-01T18:46:58.676Z,5.53
2023-03-01T18:51:52.161Z,5.55
2023-03-01T18:56:46.020Z,5.80
2023-03-01T19:01:49.388Z,5.67
2023-03-01T19:06:43.437Z,6.07
2023-03-01T19:11:34.188Z,4.43
2023-03-01T19:16:27.727Z,4.78
2023-03-01T19:21:21.762Z,5.40
2023-03-01T19:26:14.253Z,4.13
2023-03-01T19:31:07.076Z,7.07
2023-03-01T19:35:59.240Z,5.57
2023-03-01T19:40:53.024Z,6.00
2023-03-01T19:45:43.101Z,6.28
2023-03-01T19:50:38.782Z,6.20
2023-03-01T19:55:33.923Z,5.13
2023-03-01T20:00:29.372Z,6.13
2023-03-01T20:05:24.193Z,4.82
2023-03-01T20:10:16.078Z,5.72
2023-03-01T20:15:09.039Z,5.22
2023-03-01T20:20:01.885Z,6.60
2023-03-01T20:24:54.330Z,6.85
2023-03-01T20:29:46.018Z,7.47
2023-03-01T20:34:35.756Z,6.27
2023-03-01T20:39:28.310Z,7.67
2023-03-01T20:44:19.231Z,6.10
2023-03-01T20:49:11.165Z,5.50
2023-03-01T20:54:01.246Z,7.60
2023-03-01T20:58:55.287Z,5.13
2023-03-01T21:03:47.400Z,6.78
2023-03-01T21:08:38.545Z,5.67
2023-03-01T21:13:29.894Z,7.00
2023-03-01T21:18:22.848Z,6.07
2023-03-01T21:23:14.878Z,6.47
2023-03-01T21:28:04.565Z,7.13
2023-03-01T21:32:54.313Z,9.20
2023-03-01T21:37:46.723Z,10.35
2023-03-01T21:42:36.958Z,9.52
2023-03-01T21:47:26.712Z,9.05
2023-03-01T21:52:17.350Z,8.15
2023-03-01T21:57:09.647Z,7.30
2023-03-01T22:01:59.552Z,7.80
2023-03-01T22:06:50.091Z,7.45
2023-03-01T22:11:41.505Z,6.93
2023-03-01T22:16:36.591Z,8.47
2023-03-01T22:21:27.097Z,5.32
2023-03-01T22:26:25.636Z,6.88
2023-03-01T22:31:15.817Z,8.13
2023-03-01T22:36:11.907Z,8.15
2023-03-01T22:41:02.880Z,7.72
2023-03-01T22:45:55.037Z,7.30
2023-03-01T22:50:45.408Z,7.33
2023-03-01T22:55:39.165Z,7.93
2023-03-01T23:00:30.043Z,9.18
2023-03-01T23:05:21.461Z,8.43
2023-03-01T23:10:14.173Z,8.70
2023-03-01T23:15:14.791Z,7.40
2023-03-01T23:20:18.748Z,8.73
2023-03-01T23:25:15.254Z,7.68
2023-03-01T23:30:21.989Z,9.13
2023-03-01T23:35:14.098Z,9.23
2023-03-01T23:40:14.603Z,10.57
2023-03-01T23:45:27.530Z,10.23
2023-03-01T23:50:19.754Z,10.70
2023-03-01T23:55:16.032Z,10.68
